sensor_id;sensor_type;location;lat;lon;timestamp;temperature;humidity
6948;DHT22;3513;47.664;9.162;2022-07-22T00:01:02;19.90;99.90
6948;DHT22;3513;47.664;9.162;2022-07-22T00:03:28;19.90;99.90
6948;DHT22;3513;47.664;9.162;2022-07-22T00:05:54;19.90;99.90
6948;DHT22;3513;47.664;9.162;2022-07-22T00:08:20;19.90;99.90
6948;DHT22;3513;47.664;9.162;2022-07-22T00:10:45;19.80;99.90
6948;DHT22;3513;47.664;9.162;2022-07-22T00:13:11;19.80;99.90
6948;DHT22;3513;47.664;9.162;2022-07-22T00:15:37;19.70;99.90
6948;DHT22;3513;47.664;9.162;2022-07-22T00:18:02;19.80;99.90
6948;DHT22;3513;47.664;9.162;2022-07-22T00:20:28;19.80;99.90
6948;DHT22;3513;47.664;9.162;2022-07-22T00:22:54;19.70;99.90
6948;DHT22;3513;47.664;9.162;2022-07-22T00:25:19;19.70;99.90
6948;DHT22;3513;47.664;9.162;2022-07-22T00:27:45;19.70;99.90
6948;DHT22;3513;47.664;9.162;2022-07-22T00:30:11;19.60;99.90
6948;DHT22;3513;47.664;9.162;2022-07-22T00:32:37;19.60;99.90
6948;DHT22;3513;47.664;9.162;2022-07-22T00:35:03;19.50;99.90
6948;DHT22;3513;47.664;9.162;2022-07-22T00:37:28;19.50;99.90
6948;DHT22;3513;47.664;9.162;2022-07-22T00:39:55;18.60;99.90
6948;DHT22;3513;47.664;9.162;2022-07-22T00:42:20;19.40;99.90
6948;DHT22;3513;47.664;9.162;2022-07-22T00:44:46;19.40;99.90
6948;DHT22;3513;47.664;9.162;2022-07-22T00:47:12;19.40;99.90
6948;DHT22;3513;47.664;9.162;2022-07-22T00:49:38;19.40;99.90
6948;DHT22;3513;47.664;9.162;2022-07-22T00:52:04;19.40;99.90
6948;DHT22;3513;47.664;9.162;2022-07-22T00:54:31;19.40;99.90
6948;DHT22;3513;47.664;9.162;2022-07-22T00:56:57;19.40;99.90
6948;DHT22;3513;47.664;9.162;2022-07-22T00:59:23;19.30;99.90
6948;DHT22;3513;47.664;9.162;2022-07-22T01:01:49;19.30;99.90
6948;DHT22;3513;47.664;9.162;2022-07-22T01:04:14;19.30;99.90
6948;DHT22;3513;47.664;9.162;2022-07-22T01:06:41;19.20;99.90
6948;DHT22;3513;47.664;9.162;2022-07-22T01:09:10;19.30;99.90
6948;DHT22;3513;47.664;9.162;2022-07-22T01:11:35;19.30;99.90
6948;DHT22;3513;47.664;9.162;2022-07-22T01:14:01;19.20;99.90
6948;DHT22;3513;47.664;9.162;2022-07-22T01:16:26;19.20;99.90
6948;DHT22;3513;47.664;9.162;2022-07-22T01:18:52;19.20;99.90
6948;DHT22;3513;47.664;9.162;2022-07-22T01:21:18;19.20;99.90
6948;DHT22;3513;47.664;9.162;2022-07-22T01:23:44;19.10;99.90
6948;DHT22;3513;47.664;9.162;2022-07-22T01:26:11;19.00;99.90
6948;DHT22;3513;47.664;9.162;2022-07-22T01:28:36;19.00;99.90
6948;DHT22;3513;47.664;9.162;2022-07-22T01:31:02;19.00;99.90
6948;DHT22;3513;47.664;9.162;2022-07-22T01:33:28;19.00;99.90
6948;DHT22;3513;47.664;9.162;2022-07-22T01:35:54;18.90;99.90
6948;DHT22;3513;47.664;9.162;2022-07-22T01:38:19;18.90;99.90
6948;DHT22;3513;47.664;9.162;2022-07-22T01:40:45;18.90;99.90
6948;DHT22;3513;47.664;9.162;2022-07-22T01:43:11;18.90;99.90
6948;DHT22;3513;47.664;9.162;2022-07-22T01:45:39;18.90;99.90
6948;DHT22;3513;47.664;9.162;2022-07-22T01:48:05;18.90;99.90
6948;DHT22;3513;47.664;9.162;2022-07-22T01:50:30;18.90;99.90
6948;DHT22;3513;47.664;9.162;2022-07-22T01:52:56;18.90;99.90
6948;DHT22;3513;47.664;9.162;2022-07-22T01:55:22;18.90;99.90
6948;DHT22;3513;47.664;9.162;2022-07-22T01:57:47;18.90;99.90
6948;DHT22;3513;47.664;9.162;2022-07-22T02:00:13;18.90;99.90
6948;DHT22;3513;47.664;9.162;2022-07-22T02:02:39;18.80;99.90
6948;DHT22;3513;47.664;9.162;2022-07-22T02:05:05;18.80;99.90
6948;DHT22;3513;47.664;9.162;2022-07-22T02:07:32;18.90;99.90
6948;DHT22;3513;47.664;9.162;2022-07-22T02:09:58;18.90;99.90
6948;DHT22;3513;47.664;9.162;2022-07-22T02:12:24;18.80;99.90
6948;DHT22;3513;47.664;9.162;2022-07-22T02:14:49;18.80;99.90
6948;DHT22;3513;47.664;9.162;2022-07-22T02:17:15;18.70;99.90
6948;DHT22;3513;47.664;9.162;2022-07-22T02:19:41;18.70;99.90
6948;DHT22;3513;47.664;9.162;2022-07-22T02:22:07;18.80;99.90
6948;DHT22;3513;47.664;9.162;2022-07-22T02:24:33;18.70;99.90
6948;DHT22;3513;47.664;9.162;2022-07-22T02:26:58;18.70;99.90
6948;DHT22;3513;47.664;9.162;2022-07-22T02:29:24;18.60;99.90
6948;DHT22;3513;47.664;9.162;2022-07-22T02:31:50;18.60;99.90
6948;DHT22;3513;47.664;9.162;2022-07-22T02:34:15;18.60;99.90
6948;DHT22;3513;47.664;9.162;2022-07-22T02:36:41;18.60;99.90
6948;DHT22;3513;47.664;9.162;2022-07-22T02:39:07;18.50;99.90
6948;DHT22;3513;47.664;9.162;2022-07-22T02:41:33;18.50;99.90
6948;DHT22;3513;47.664;9.162;2022-07-22T02:43:58;18.50;99.90
6948;DHT22;3513;47.664;9.162;2022-07-22T02:46:25;18.40;99.90
6948;DHT22;3513;47.664;9.162;2022-07-22T02:48:51;18.40;99.90
6948;DHT22;3513;47.664;9.162;2022-07-22T02:51:17;18.40;99.90
6948;DHT22;3513;47.664;9.162;2022-07-22T02:53:42;18.30;99.90
6948;DHT22;3513;47.664;9.162;2022-07-22T02:56:08;18.30;99.90
6948;DHT22;3513;47.664;9.162;2022-07-22T02:58:34;18.30;99.90
6948;DHT22;3513;47.664;9.162;2022-07-22T03:01:00;18.30;99.90
6948;DHT22;3513;47.664;9.162;2022-07-22T03:03:26;18.30;99.90
6948;DHT22;3513;47.664;9.162;2022-07-22T03:05:52;18.30;99.90
6948;DHT22;3513;47.664;9.162;2022-07-22T03:08:17;18.30;99.90
6948;DHT22;3513;47.664;9.162;2022-07-22T03:10:43;18.20;99.90
6948;DHT22;3513;47.664;9.162;2022-07-22T03:13:09;18.20;99.90
6948;DHT22;3513;47.664;9.162;2022-07-22T03:15:34;18.20;99.90
6948;DHT22;3513;47.664;9.162;2022-07-22T03:18:00;18.20;99.90
6948;DHT22;3513;47.664;9.162;2022-07-22T03:20:26;18.10;99.90
6948;DHT22;3513;47.664;9.162;2022-07-22T03:22:52;18.10;99.90
6948;DHT22;3513;47.664;9.162;2022-07-22T03:25:18;18.10;99.90
6948;DHT22;3513;47.664;9.162;2022-07-22T03:27:44;18.10;99.90
6948;DHT22;3513;47.664;9.162;2022-07-22T03:30:10;18.20;99.90
6948;DHT22;3513;47.664;9.162;2022-07-22T03:32:36;18.10;99.90
6948;DHT22;3513;47.664;9.162;2022-07-22T03:35:02;18.10;99.90
6948;DHT22;3513;47.664;9.162;2022-07-22T03:37:27;18.10;99.90
6948;DHT22;3513;47.664;9.162;2022-07-22T03:39:53;18.10;99.90
6948;DHT22;3513;47.664;9.162;2022-07-22T03:42:19;18.10;99.90
6948;DHT22;3513;47.664;9.162;2022-07-22T03:44:44;18.00;99.90
6948;DHT22;3513;47.664;9.162;2022-07-22T03:47:10;18.10;99.90
6948;DHT22;3513;47.664;9.162;2022-07-22T03:49:36;18.10;99.90
6948;DHT22;3513;47.664;9.162;2022-07-22T03:52:01;18.00;99.90
6948;DHT22;3513;47.664;9.162;2022-07-22T03:54:27;18.00;99.90
6948;DHT22;3513;47.664;9.162;2022-07-22T03:56:52;18.00;99.90
6948;DHT22;3513;47.664;9.162;2022-07-22T03:59:18;18.00;99.90
6948;DHT22;3513;47.664;9.162;2022-07-22T04:01:44;18.00;99.90
6948;DHT22;3513;47.664;9.162;2022-07-22T04:04:09;18.00;99.90
6948;DHT22;3513;47.664;9.162;2022-07-22T04:06:35;18.70;99.90
6948;DHT22;3513;47.664;9.162;2022-07-22T04:09:00;18.00;99.90
6948;DHT22;3513;47.664;9.162;2022-07-22T04:11:26;18.00;99.90
6948;DHT22;3513;47.664;9.162;2022-07-22T04:13:53;18.00;99.90
6948;DHT22;3513;47.664;9.162;2022-07-22T04:16:19;18.00;99.90
6948;DHT22;3513;47.664;9.162;2022-07-22T04:18:44;18.10;99.90
6948;DHT22;3513;47.664;9.162;2022-07-22T04:21:10;18.10;99.90
6948;DHT22;3513;47.664;9.162;2022-07-22T04:23:36;18.10;99.90
6948;DHT22;3513;47.664;9.162;2022-07-22T04:26:02;18.10;99.90
6948;DHT22;3513;47.664;9.162;2022-07-22T04:28:27;18.20;99.90
6948;DHT22;3513;47.664;9.162;2022-07-22T04:30:53;18.20;99.90
6948;DHT22;3513;47.664;9.162;2022-07-22T04:33:18;18.20;99.90
6948;DHT22;3513;47.664;9.162;2022-07-22T04:35:44;18.30;99.90
6948;DHT22;3513;47.664;9.162;2022-07-22T04:38:10;18.30;99.90
6948;DHT22;3513;47.664;9.162;2022-07-22T04:40:35;18.40;99.90
6948;DHT22;3513;47.664;9.162;2022-07-22T04:43:01;18.50;99.90
6948;DHT22;3513;47.664;9.162;2022-07-22T04:45:27;18.60;99.90
6948;DHT22;3513;47.664;9.162;2022-07-22T04:47:52;17.40;99.90
6948;DHT22;3513;47.664;9.162;2022-07-22T04:50:18;18.70;99.90
6948;DHT22;3513;47.664;9.162;2022-07-22T04:52:44;18.70;99.90
6948;DHT22;3513;47.664;9.162;2022-07-22T04:55:10;18.80;99.90
6948;DHT22;3513;47.664;9.162;2022-07-22T04:57:36;18.80;99.90
6948;DHT22;3513;47.664;9.162;2022-07-22T05:00:03;18.80;99.90
6948;DHT22;3513;47.664;9.162;2022-07-22T05:02:28;18.90;99.90
6948;DHT22;3513;47.664;9.162;2022-07-22T05:04:54;18.90;99.90
6948;DHT22;3513;47.664;9.162;2022-07-22T05:07:20;18.90;99.90
6948;DHT22;3513;47.664;9.162;2022-07-22T05:09:45;19.00;99.90
6948;DHT22;3513;47.664;9.162;2022-07-22T05:12:11;19.00;99.90
6948;DHT22;3513;47.664;9.162;2022-07-22T05:14:36;19.00;99.90
6948;DHT22;3513;47.664;9.162;2022-07-22T05:17:02;19.10;99.90
6948;DHT22;3513;47.664;9.162;2022-07-22T05:19:28;19.10;99.90
6948;DHT22;3513;47.664;9.162;2022-07-22T05:21:53;19.10;99.90
6948;DHT22;3513;47.664;9.162;2022-07-22T05:24:19;19.20;99.90
6948;DHT22;3513;47.664;9.162;2022-07-22T05:26:44;19.20;99.90
6948;DHT22;3513;47.664;9.162;2022-07-22T05:29:10;19.30;99.90
6948;DHT22;3513;47.664;9.162;2022-07-22T05:31:36;19.30;99.90
6948;DHT22;3513;47.664;9.162;2022-07-22T05:34:01;19.50;99.90
6948;DHT22;3513;47.664;9.162;2022-07-22T05:36:28;19.50;99.90
6948;DHT22;3513;47.664;9.162;2022-07-22T05:38:54;19.60;99.90
6948;DHT22;3513;47.664;9.162;2022-07-22T05:41:19;19.80;99.90
6948;DHT22;3513;47.664;9.162;2022-07-22T05:43:45;19.90;99.90
6948;DHT22;3513;47.664;9.162;2022-07-22T05:46:11;19.90;99.90
6948;DHT22;3513;47.664;9.162;2022-07-22T05:48:36;20.00;99.90
6948;DHT22;3513;47.664;9.162;2022-07-22T05:51:02;20.10;99.90
6948;DHT22;3513;47.664;9.162;2022-07-22T05:53:28;20.20;99.90
6948;DHT22;3513;47.664;9.162;2022-07-22T05:55:53;20.20;99.90
6948;DHT22;3513;47.664;9.162;2022-07-22T05:58:19;20.40;99.90
6948;DHT22;3513;47.664;9.162;2022-07-22T06:00:45;20.50;99.90
6948;DHT22;3513;47.664;9.162;2022-07-22T06:03:10;20.60;99.90
6948;DHT22;3513;47.664;9.162;2022-07-22T06:05:36;20.60;99.90
6948;DHT22;3513;47.664;9.162;2022-07-22T06:08:03;20.60;99.90
6948;DHT22;3513;47.664;9.162;2022-07-22T06:10:29;20.60;99.90
6948;DHT22;3513;47.664;9.162;2022-07-22T06:12:54;20.60;99.90
6948;DHT22;3513;47.664;9.162;2022-07-22T06:15:20;20.60;99.90
6948;DHT22;3513;47.664;9.162;2022-07-22T06:17:46;20.80;99.90
6948;DHT22;3513;47.664;9.162;2022-07-22T06:20:11;20.90;99.90
6948;DHT22;3513;47.664;9.162;2022-07-22T06:22:39;21.00;99.90
6948;DHT22;3513;47.664;9.162;2022-07-22T06:25:06;21.10;99.90
6948;DHT22;3513;47.664;9.162;2022-07-22T06:27:31;21.30;99.90
6948;DHT22;3513;47.664;9.162;2022-07-22T06:29:57;21.50;99.90
6948;DHT22;3513;47.664;9.162;2022-07-22T06:32:23;21.50;99.90
6948;DHT22;3513;47.664;9.162;2022-07-22T06:34:49;21.70;99.90
6948;DHT22;3513;47.664;9.162;2022-07-22T06:37:15;21.70;99.90
6948;DHT22;3513;47.664;9.162;2022-07-22T06:39:40;21.80;99.90
6948;DHT22;3513;47.664;9.162;2022-07-22T06:42:08;21.90;99.90
6948;DHT22;3513;47.664;9.162;2022-07-22T06:44:34;21.90;99.90
6948;DHT22;3513;47.664;9.162;2022-07-22T06:47:00;22.00;99.90
6948;DHT22;3513;47.664;9.162;2022-07-22T06:49:26;22.10;99.90
6948;DHT22;3513;47.664;9.162;2022-07-22T06:51:51;22.20;99.90
6948;DHT22;3513;47.664;9.162;2022-07-22T06:54:17;22.30;99.40
6948;DHT22;3513;47.664;9.162;2022-07-22T06:56:43;22.50;99.00
6948;DHT22;3513;47.664;9.162;2022-07-22T06:59:09;22.50;98.20
6948;DHT22;3513;47.664;9.162;2022-07-22T07:01:34;22.70;98.00
6948;DHT22;3513;47.664;9.162;2022-07-22T07:04:00;22.70;97.30
6948;DHT22;3513;47.664;9.162;2022-07-22T07:06:27;22.80;96.80
6948;DHT22;3513;47.664;9.162;2022-07-22T07:08:53;22.90;96.60
6948;DHT22;3513;47.664;9.162;2022-07-22T07:11:18;23.00;96.20
6948;DHT22;3513;47.664;9.162;2022-07-22T07:13:44;23.10;95.40
6948;DHT22;3513;47.664;9.162;2022-07-22T07:16:10;23.10;95.20
6948;DHT22;3513;47.664;9.162;2022-07-22T07:18:36;23.10;95.40
6948;DHT22;3513;47.664;9.162;2022-07-22T07:21:03;23.20;95.40
6948;DHT22;3513;47.664;9.162;2022-07-22T07:23:29;23.30;95.50
6948;DHT22;3513;47.664;9.162;2022-07-22T07:25:55;23.40;95.50
6948;DHT22;3513;47.664;9.162;2022-07-22T07:28:21;23.50;95.30
6948;DHT22;3513;47.664;9.162;2022-07-22T07:30:47;23.60;95.00
6948;DHT22;3513;47.664;9.162;2022-07-22T07:33:13;23.70;94.60
6948;DHT22;3513;47.664;9.162;2022-07-22T07:35:38;23.70;94.50
6948;DHT22;3513;47.664;9.162;2022-07-22T07:38:04;23.80;94.30
6948;DHT22;3513;47.664;9.162;2022-07-22T07:40:30;23.80;94.30
6948;DHT22;3513;47.664;9.162;2022-07-22T07:42:56;23.90;94.30
6948;DHT22;3513;47.664;9.162;2022-07-22T07:45:21;24.00;94.10
6948;DHT22;3513;47.664;9.162;2022-07-22T07:47:47;24.00;93.90
6948;DHT22;3513;47.664;9.162;2022-07-22T07:50:13;24.10;93.80
6948;DHT22;3513;47.664;9.162;2022-07-22T07:52:43;24.20;93.80
6948;DHT22;3513;47.664;9.162;2022-07-22T07:55:10;24.30;93.70
6948;DHT22;3513;47.664;9.162;2022-07-22T07:57:37;24.30;93.60
6948;DHT22;3513;47.664;9.162;2022-07-22T08:00:05;24.40;93.60
6948;DHT22;3513;47.664;9.162;2022-07-22T08:02:32;24.50;93.40
6948;DHT22;3513;47.664;9.162;2022-07-22T08:04:58;24.60;93.10
6948;DHT22;3513;47.664;9.162;2022-07-22T08:07:25;24.60;92.90
6948;DHT22;3513;47.664;9.162;2022-07-22T08:09:51;24.70;92.60
6948;DHT22;3513;47.664;9.162;2022-07-22T08:12:16;24.80;92.40
6948;DHT22;3513;47.664;9.162;2022-07-22T08:14:42;24.80;92.40
6948;DHT22;3513;47.664;9.162;2022-07-22T08:17:08;24.90;92.50
6948;DHT22;3513;47.664;9.162;2022-07-22T08:19:33;24.90;92.40
6948;DHT22;3513;47.664;9.162;2022-07-22T08:21:59;25.00;92.00
6948;DHT22;3513;47.664;9.162;2022-07-22T08:24:24;25.10;92.00
6948;DHT22;3513;47.664;9.162;2022-07-22T08:26:50;25.20;91.70
6948;DHT22;3513;47.664;9.162;2022-07-22T08:29:16;25.20;91.30
6948;DHT22;3513;47.664;9.162;2022-07-22T08:31:41;25.30;91.30
6948;DHT22;3513;47.664;9.162;2022-07-22T08:34:07;25.40;90.90
6948;DHT22;3513;47.664;9.162;2022-07-22T08:36:33;25.40;90.80
6948;DHT22;3513;47.664;9.162;2022-07-22T08:38:58;25.50;90.70
6948;DHT22;3513;47.664;9.162;2022-07-22T08:41:24;25.60;90.60
6948;DHT22;3513;47.664;9.162;2022-07-22T08:43:51;25.70;90.30
6948;DHT22;3513;47.664;9.162;2022-07-22T08:46:17;25.80;90.00
6948;DHT22;3513;47.664;9.162;2022-07-22T08:48:44;25.90;89.20
6948;DHT22;3513;47.664;9.162;2022-07-22T08:51:11;26.00;88.90
6948;DHT22;3513;47.664;9.162;2022-07-22T08:53:36;26.00;88.70
6948;DHT22;3513;47.664;9.162;2022-07-22T08:56:02;26.10;88.90
6948;DHT22;3513;47.664;9.162;2022-07-22T08:58:28;26.20;88.50
6948;DHT22;3513;47.664;9.162;2022-07-22T09:01:11;26.20;88.10
6948;DHT22;3513;47.664;9.162;2022-07-22T09:04:04;26.30;87.50
6948;DHT22;3513;47.664;9.162;2022-07-22T09:06:29;26.40;87.10
6948;DHT22;3513;47.664;9.162;2022-07-22T09:09:02;26.50;86.70
6948;DHT22;3513;47.664;9.162;2022-07-22T09:11:30;26.60;86.40
6948;DHT22;3513;47.664;9.162;2022-07-22T09:13:58;26.70;86.00
6948;DHT22;3513;47.664;9.162;2022-07-22T09:16:45;26.80;85.50
6948;DHT22;3513;47.664;9.162;2022-07-22T09:19:11;26.90;85.00
6948;DHT22;3513;47.664;9.162;2022-07-22T09:21:39;27.00;84.90
6948;DHT22;3513;47.664;9.162;2022-07-22T09:24:06;27.00;84.50
6948;DHT22;3513;47.664;9.162;2022-07-22T09:26:35;27.10;83.90
6948;DHT22;3513;47.664;9.162;2022-07-22T09:29:01;27.20;83.00
6948;DHT22;3513;47.664;9.162;2022-07-22T09:31:30;27.30;82.70
6948;DHT22;3513;47.664;9.162;2022-07-22T09:33:56;27.40;82.30
6948;DHT22;3513;47.664;9.162;2022-07-22T09:36:23;27.40;82.20
6948;DHT22;3513;47.664;9.162;2022-07-22T09:38:49;27.50;81.70
6948;DHT22;3513;47.664;9.162;2022-07-22T09:41:16;27.70;81.30
6948;DHT22;3513;47.664;9.162;2022-07-22T09:43:42;27.80;80.80
6948;DHT22;3513;47.664;9.162;2022-07-22T09:46:07;27.80;80.40
6948;DHT22;3513;47.664;9.162;2022-07-22T09:48:36;27.90;79.80
6948;DHT22;3513;47.664;9.162;2022-07-22T09:51:03;27.90;79.10
6948;DHT22;3513;47.664;9.162;2022-07-22T09:53:30;27.90;78.30
6948;DHT22;3513;47.664;9.162;2022-07-22T09:56:01;28.00;78.20
6948;DHT22;3513;47.664;9.162;2022-07-22T09:58:28;28.10;77.20
6948;DHT22;3513;47.664;9.162;2022-07-22T10:00:57;28.10;77.00
6948;DHT22;3513;47.664;9.162;2022-07-22T10:03:30;28.20;76.80
6948;DHT22;3513;47.664;9.162;2022-07-22T10:05:57;28.30;76.70
6948;DHT22;3513;47.664;9.162;2022-07-22T10:08:25;28.40;76.40
6948;DHT22;3513;47.664;9.162;2022-07-22T10:10:52;28.50;75.60
6948;DHT22;3513;47.664;9.162;2022-07-22T10:13:19;28.50;74.60
6948;DHT22;3513;47.664;9.162;2022-07-22T10:15:45;28.50;74.50
6948;DHT22;3513;47.664;9.162;2022-07-22T10:18:16;28.50;75.00
6948;DHT22;3513;47.664;9.162;2022-07-22T10:20:42;28.60;74.80
6948;DHT22;3513;47.664;9.162;2022-07-22T10:23:10;28.70;74.40
6948;DHT22;3513;47.664;9.162;2022-07-22T10:30:51;29.00;72.00
6948;DHT22;3513;47.664;9.162;2022-07-22T10:33:18;28.90;72.80
6948;DHT22;3513;47.664;9.162;2022-07-22T10:36:01;29.10;72.40
6948;DHT22;3513;47.664;9.162;2022-07-22T10:38:29;29.20;71.90
6948;DHT22;3513;47.664;9.162;2022-07-22T10:43:30;29.40;70.90
6948;DHT22;3513;47.664;9.162;2022-07-22T10:46:00;29.60;70.80
6948;DHT22;3513;47.664;9.162;2022-07-22T10:51:09;29.50;67.80
6948;DHT22;3513;47.664;9.162;2022-07-22T10:53:44;29.50;69.00
6948;DHT22;3513;47.664;9.162;2022-07-22T10:59:12;29.60;68.50
6948;DHT22;3513;47.664;9.162;2022-07-22T11:01:41;29.70;67.60
6948;DHT22;3513;47.664;9.162;2022-07-22T11:06:36;29.90;65.90
6948;DHT22;3513;47.664;9.162;2022-07-22T11:09:05;30.00;67.40
6948;DHT22;3513;47.664;9.162;2022-07-22T11:11:45;30.10;66.90
6948;DHT22;3513;47.664;9.162;2022-07-22T11:14:17;30.20;64.90
6948;DHT22;3513;47.664;9.162;2022-07-22T11:16:44;30.30;64.70
6948;DHT22;3513;47.664;9.162;2022-07-22T11:19:09;30.40;63.80
6948;DHT22;3513;47.664;9.162;2022-07-22T11:21:36;30.40;63.90
6948;DHT22;3513;47.664;9.162;2022-07-22T11:24:05;30.50;63.50
6948;DHT22;3513;47.664;9.162;2022-07-22T11:26:45;30.60;63.90
6948;DHT22;3513;47.664;9.162;2022-07-22T11:29:24;30.80;62.70
6948;DHT22;3513;47.664;9.162;2022-07-22T11:31:51;31.00;62.00
6948;DHT22;3513;47.664;9.162;2022-07-22T11:34:17;31.10;60.40
6948;DHT22;3513;47.664;9.162;2022-07-22T11:36:44;31.30;60.30
6948;DHT22;3513;47.664;9.162;2022-07-22T11:39:12;31.30;59.00
6948;DHT22;3513;47.664;9.162;2022-07-22T11:41:39;31.40;57.10
6948;DHT22;3513;47.664;9.162;2022-07-22T11:44:05;31.50;55.50
6948;DHT22;3513;47.664;9.162;2022-07-22T11:46:50;31.60;55.30
6948;DHT22;3513;47.664;9.162;2022-07-22T11:49:18;31.70;55.10
6948;DHT22;3513;47.664;9.162;2022-07-22T11:51:44;31.80;54.80
6948;DHT22;3513;47.664;9.162;2022-07-22T11:54:10;31.90;54.70
6948;DHT22;3513;47.664;9.162;2022-07-22T11:56:37;32.00;55.20
6948;DHT22;3513;47.664;9.162;2022-07-22T11:59:04;32.10;55.60
6948;DHT22;3513;47.664;9.162;2022-07-22T12:01:36;32.20;54.80
6948;DHT22;3513;47.664;9.162;2022-07-22T12:04:19;32.20;54.60
6948;DHT22;3513;47.664;9.162;2022-07-22T12:06:46;32.30;54.60
6948;DHT22;3513;47.664;9.162;2022-07-22T12:09:20;32.40;54.20
6948;DHT22;3513;47.664;9.162;2022-07-22T12:11:48;32.50;54.40
6948;DHT22;3513;47.664;9.162;2022-07-22T12:14:17;32.70;53.80
6948;DHT22;3513;47.664;9.162;2022-07-22T12:16:52;32.80;53.00
6948;DHT22;3513;47.664;9.162;2022-07-22T12:19:19;32.80;52.70
6948;DHT22;3513;47.664;9.162;2022-07-22T12:21:53;33.00;52.30
6948;DHT22;3513;47.664;9.162;2022-07-22T12:27:10;33.20;52.40
6948;DHT22;3513;47.664;9.162;2022-07-22T12:32:05;33.50;51.30
6948;DHT22;3513;47.664;9.162;2022-07-22T12:40:02;34.00;49.10
6948;DHT22;3513;47.664;9.162;2022-07-22T12:42:31;34.10;46.70
6948;DHT22;3513;47.664;9.162;2022-07-22T12:45:09;34.20;47.60
6948;DHT22;3513;47.664;9.162;2022-07-22T12:52:52;34.70;44.50
6948;DHT22;3513;47.664;9.162;2022-07-22T12:55:18;34.90;43.40
6948;DHT22;3513;47.664;9.162;2022-07-22T12:57:44;35.10;43.50
6948;DHT22;3513;47.664;9.162;2022-07-22T13:00:10;35.40;43.00
6948;DHT22;3513;47.664;9.162;2022-07-22T13:02:40;35.60;42.50
6948;DHT22;3513;47.664;9.162;2022-07-22T13:05:07;35.90;41.80
6948;DHT22;3513;47.664;9.162;2022-07-22T13:07:32;36.10;41.40
6948;DHT22;3513;47.664;9.162;2022-07-22T13:09:58;36.30;41.00
6948;DHT22;3513;47.664;9.162;2022-07-22T13:12:24;36.60;40.10
6948;DHT22;3513;47.664;9.162;2022-07-22T13:14:49;36.50;39.40
6948;DHT22;3513;47.664;9.162;2022-07-22T13:17:15;37.00;39.40
6948;DHT22;3513;47.664;9.162;2022-07-22T13:19:41;37.20;38.50
6948;DHT22;3513;47.664;9.162;2022-07-22T13:22:06;37.40;37.40
6948;DHT22;3513;47.664;9.162;2022-07-22T13:24:33;37.50;37.40
6948;DHT22;3513;47.664;9.162;2022-07-22T13:26:59;37.50;37.00
6948;DHT22;3513;47.664;9.162;2022-07-22T13:29:25;37.70;37.20
6948;DHT22;3513;47.664;9.162;2022-07-22T13:31:50;37.80;36.50
6948;DHT22;3513;47.664;9.162;2022-07-22T13:34:16;38.10;36.40
6948;DHT22;3513;47.664;9.162;2022-07-22T13:36:42;38.40;35.40
6948;DHT22;3513;47.664;9.162;2022-07-22T13:39:07;38.60;35.70
6948;DHT22;3513;47.664;9.162;2022-07-22T13:41:34;38.70;35.20
6948;DHT22;3513;47.664;9.162;2022-07-22T13:44:00;38.90;34.70
6948;DHT22;3513;47.664;9.162;2022-07-22T13:46:25;39.10;34.60
6948;DHT22;3513;47.664;9.162;2022-07-22T13:48:52;39.20;33.60
6948;DHT22;3513;47.664;9.162;2022-07-22T13:51:18;39.20;33.40
6948;DHT22;3513;47.664;9.162;2022-07-22T13:53:44;39.20;33.50
6948;DHT22;3513;47.664;9.162;2022-07-22T13:56:10;39.40;33.60
6948;DHT22;3513;47.664;9.162;2022-07-22T13:58:38;39.60;33.30
6948;DHT22;3513;47.664;9.162;2022-07-22T14:01:06;39.90;32.90
6948;DHT22;3513;47.664;9.162;2022-07-22T14:03:32;40.00;32.50
6948;DHT22;3513;47.664;9.162;2022-07-22T14:05:57;40.10;31.90
6948;DHT22;3513;47.664;9.162;2022-07-22T14:08:23;40.20;31.70
6948;DHT22;3513;47.664;9.162;2022-07-22T14:10:49;40.40;31.60
6948;DHT22;3513;47.664;9.162;2022-07-22T14:13:14;40.60;31.10
6948;DHT22;3513;47.664;9.162;2022-07-22T14:15:40;40.90;30.60
6948;DHT22;3513;47.664;9.162;2022-07-22T14:18:06;41.00;29.90
6948;DHT22;3513;47.664;9.162;2022-07-22T14:20:33;41.00;30.20
6948;DHT22;3513;47.664;9.162;2022-07-22T14:22:59;40.90;29.30
6948;DHT22;3513;47.664;9.162;2022-07-22T14:25:24;40.80;29.60
6948;DHT22;3513;47.664;9.162;2022-07-22T14:27:50;41.00;29.50
6948;DHT22;3513;47.664;9.162;2022-07-22T14:30:16;41.20;29.30
6948;DHT22;3513;47.664;9.162;2022-07-22T14:32:41;41.40;29.30
6948;DHT22;3513;47.664;9.162;2022-07-22T14:35:07;41.50;28.90
6948;DHT22;3513;47.664;9.162;2022-07-22T14:37:33;41.60;28.70
6948;DHT22;3513;47.664;9.162;2022-07-22T14:39:59;41.70;28.60
6948;DHT22;3513;47.664;9.162;2022-07-22T14:42:24;41.80;28.60
6948;DHT22;3513;47.664;9.162;2022-07-22T14:44:50;41.80;28.30
6948;DHT22;3513;47.664;9.162;2022-07-22T14:47:16;42.00;28.60
6948;DHT22;3513;47.664;9.162;2022-07-22T14:49:41;41.90;28.20
6948;DHT22;3513;47.664;9.162;2022-07-22T14:52:07;41.90;28.20
6948;DHT22;3513;47.664;9.162;2022-07-22T14:54:34;42.10;28.10
6948;DHT22;3513;47.664;9.162;2022-07-22T14:56:59;42.10;27.90
6948;DHT22;3513;47.664;9.162;2022-07-22T14:59:26;42.20;28.00
6948;DHT22;3513;47.664;9.162;2022-07-22T15:01:52;42.40;27.90
6948;DHT22;3513;47.664;9.162;2022-07-22T15:04:18;42.40;27.90
6948;DHT22;3513;47.664;9.162;2022-07-22T15:06:44;42.60;27.30
6948;DHT22;3513;47.664;9.162;2022-07-22T15:09:09;42.50;27.60
6948;DHT22;3513;47.664;9.162;2022-07-22T15:11:35;42.50;28.30
6948;DHT22;3513;47.664;9.162;2022-07-22T15:14:01;42.70;28.20
6948;DHT22;3513;47.664;9.162;2022-07-22T15:16:27;42.80;27.90
6948;DHT22;3513;47.664;9.162;2022-07-22T15:18:53;43.10;27.60
6948;DHT22;3513;47.664;9.162;2022-07-22T15:21:18;43.10;27.20
6948;DHT22;3513;47.664;9.162;2022-07-22T15:23:44;43.20;26.80
6948;DHT22;3513;47.664;9.162;2022-07-22T15:26:10;43.30;27.00
6948;DHT22;3513;47.664;9.162;2022-07-22T15:28:35;43.40;26.70
6948;DHT22;3513;47.664;9.162;2022-07-22T15:31:03;43.60;26.70
6948;DHT22;3513;47.664;9.162;2022-07-22T15:33:29;43.80;26.30
6948;DHT22;3513;47.664;9.162;2022-07-22T15:35:54;44.00;26.40
6948;DHT22;3513;47.664;9.162;2022-07-22T15:38:20;44.30;26.20
6948;DHT22;3513;47.664;9.162;2022-07-22T15:40:46;44.80;25.90
6948;DHT22;3513;47.664;9.162;2022-07-22T15:43:12;45.00;25.60
6948;DHT22;3513;47.664;9.162;2022-07-22T15:45:37;45.40;25.50
6948;DHT22;3513;47.664;9.162;2022-07-22T15:48:03;45.70;25.10
6948;DHT22;3513;47.664;9.162;2022-07-22T15:50:31;46.00;24.90
6948;DHT22;3513;47.664;9.162;2022-07-22T15:52:56;46.30;24.60
6948;DHT22;3513;47.664;9.162;2022-07-22T15:55:23;46.50;24.30
6948;DHT22;3513;47.664;9.162;2022-07-22T15:57:49;46.70;24.20
6948;DHT22;3513;47.664;9.162;2022-07-22T16:00:34;46.80;23.90
6948;DHT22;3513;47.664;9.162;2022-07-22T16:03:00;46.90;23.80
6948;DHT22;3513;47.664;9.162;2022-07-22T16:05:26;47.10;23.50
6948;DHT22;3513;47.664;9.162;2022-07-22T16:07:53;47.30;23.50
6948;DHT22;3513;47.664;9.162;2022-07-22T16:10:19;47.50;23.60
6948;DHT22;3513;47.664;9.162;2022-07-22T16:12:44;47.50;23.50
6948;DHT22;3513;47.664;9.162;2022-07-22T16:15:10;47.70;23.40
6948;DHT22;3513;47.664;9.162;2022-07-22T16:17:37;47.90;22.90
6948;DHT22;3513;47.664;9.162;2022-07-22T16:20:06;48.10;22.80
6948;DHT22;3513;47.664;9.162;2022-07-22T16:22:35;48.40;22.40
6948;DHT22;3513;47.664;9.162;2022-07-22T16:25:02;48.70;22.20
6948;DHT22;3513;47.664;9.162;2022-07-22T16:27:28;48.80;22.60
6948;DHT22;3513;47.664;9.162;2022-07-22T16:29:54;48.40;22.30